Time;durP1;ratioP1;P1;durP2;ratioP2;P2;SDS_P1;SDS_P2;PMS_P1;PMS_P2;Temp;Humidity;BMP_temperature;BMP_pressure;BME280_temperature;BME280_humidity;BME280_pressure;Samples;Min_cycle;Max_cycle;Signal;HPM_P1;HPM_P2
2023/05/20 00:00:57;;;;;;;3.83;2.85;;;;;;;9.05;83.80;100787.25;4821489;28;20485;-58
2023/05/20 00:03:28;;;;;;;5.65;3.03;;;;;;;9.19;83.34;100789.00;4835225;28;20057;-58
2023/05/20 00:05:59;;;;;;;5.03;3.35;;;;;;;9.18;82.42;100792.44;4837520;28;20051;-58
2023/05/20 00:08:30;;;;;;;4.80;2.88;;;;;;;9.31;82.43;100795.91;4831073;28;20045;-57
2023/05/20 00:11:00;;;;;;;5.47;2.75;;;;;;;9.31;81.73;100802.00;4833404;28;20054;-58
2023/05/20 00:13:34;;;;;;;8.90;3.35;;;;;;;9.48;82.27;100802.81;4836025;28;20564;-58
2023/05/20 00:16:06;;;;;;;7.30;3.15;;;;;;;9.72;80.13;100801.84;4823962;28;20165;-58
2023/05/20 00:18:36;;;;;;;7.80;2.92;;;;;;;9.76;79.05;100775.72;4832842;28;20050;-58
2023/05/20 00:21:07;;;;;;;5.45;3.25;;;;;;;10.07;79.51;100792.09;4835720;28;20462;-58
2023/05/20 00:23:41;;;;;;;5.63;2.47;;;;;;;10.43;77.86;100796.25;4837125;28;20444;-58
2023/05/20 00:26:14;;;;;;;8.55;3.22;;;;;;;10.53;77.42;100783.97;4833162;28;20064;-58
2023/05/20 00:28:47;;;;;;;5.07;3.40;;;;;;;10.96;76.48;100786.25;4823348;28;20472;-59
2023/05/20 00:31:20;;;;;;;3.20;2.50;;;;;;;11.20;74.98;100780.72;4833581;28;20101;-58
2023/05/20 00:33:51;;;;;;;3.85;2.95;;;;;;;11.47;76.05;100773.47;4831966;28;20050;-58
2023/05/20 00:36:21;;;;;;;4.55;2.80;;;;;;;11.27;73.23;100770.22;4833608;28;20163;-58
2023/05/20 00:38:55;;;;;;;7.88;2.95;;;;;;;11.41;73.72;100769.19;4832651;28;20145;-58
2023/05/20 00:41:25;;;;;;;6.20;2.80;;;;;;;11.58;74.42;100774.22;4821575;28;20533;-58
2023/05/20 00:44:00;;;;;;;6.25;2.92;;;;;;;11.51;72.43;100769.94;4832751;28;20056;-58
2023/05/20 00:46:31;;;;;;;5.05;2.40;;;;;;;11.42;72.09;100764.81;4832889;28;20054;-58
2023/05/20 00:49:06;;;;;;;7.68;2.85;;;;;;;11.14;73.29;100718.03;4821799;28;20066;-57
2023/05/20 00:51:38;;;;;;;3.65;2.40;;;;;;;11.60;73.19;100772.41;4832403;28;20070;-58
2023/05/20 00:54:09;;;;;;;7.03;2.80;;;;;;;11.80;73.20;100771.31;4830909;28;20060;-58
2023/05/20 00:56:45;;;;;;;5.15;3.00;;;;;;;11.68;70.52;100768.84;4829989;28;20756;-58
2023/05/20 00:59:20;;;;;;;4.47;2.90;;;;;;;11.66;73.20;100754.03;4821776;28;20382;-58
2023/05/20 01:01:51;;;;;;;4.35;3.10;;;;;;;12.17;73.41;100760.34;4832853;28;20050;-58
2023/05/20 01:04:22;;;;;;;4.63;3.00;;;;;;;12.22;69.80;100742.81;4816223;28;20647;-58
2023/05/20 01:06:54;;;;;;;4.38;2.70;;;;;;;12.05;69.43;100736.06;4830525;28;20044;-59
2023/05/20 01:09:26;;;;;;;9.05;3.28;;;;;;;11.95;70.61;100760.66;4836643;28;20075;-58
2023/05/20 01:12:04;;;;;;;4.80;3.00;;;;;;;11.63;70.92;100747.97;4832335;28;20481;-58
2023/05/20 01:14:44;;;;;;;6.75;3.00;;;;;;;11.95;71.17;100739.69;4828215;28;20468;-58
2023/05/20 01:17:31;;;;;;;4.63;2.50;;;;;;;12.29;70.32;100740.06;4822359;28;20045;-57
2023/05/20 01:20:07;;;;;;;3.50;2.70;;;;;;;12.43;70.52;100742.47;4821253;28;20128;-58
2023/05/20 01:22:47;;;;;;;5.13;2.22;;;;;;;12.04;69.49;100716.00;4821110;28;20106;-57
2023/05/20 01:25:18;;;;;;;6.35;2.95;;;;;;;12.08;72.25;100715.06;4821203;28;20062;-58
2023/05/20 01:27:49;;;;;;;2.75;2.45;;;;;;;12.08;70.73;100717.69;4831900;28;20054;-57
2023/05/20 01:30:21;;;;;;;3.55;2.40;;;;;;;12.24;72.29;100714.84;4832262;28;20124;-57
2023/05/20 01:32:56;;;;;;;6.30;2.92;;;;;;;12.35;70.63;100733.84;4831082;28;20481;-55
2023/05/20 01:35:27;;;;;;;8.13;2.53;;;;;;;12.51;70.59;100730.09;4825287;28;20132;-56
2023/05/20 01:38:04;;;;;;;3.55;2.33;;;;;;;12.35;70.58;100723.38;4831466;28;20096;-57
2023/05/20 01:40:35;;;;;;;4.97;2.63;;;;;;;12.34;69.68;100726.91;4821566;28;20069;-57
2023/05/20 01:43:06;;;;;;;9.45;2.40;;;;;;;12.55;70.59;100690.72;4833127;28;20778;-57
2023/05/20 01:45:42;;;;;;;3.95;2.70;;;;;;;12.87;68.48;100722.47;4835064;28;20082;-57
2023/05/20 01:48:14;;;;;;;5.90;2.60;;;;;;;13.00;69.64;100706.50;4828154;28;20074;-57
2023/05/20 01:50:45;;;;;;;7.00;2.30;;;;;;;12.84;68.06;100672.69;4830830;28;20060;-57
2023/05/20 01:53:20;;;;;;;5.18;2.10;;;;;;;13.09;68.49;100701.09;4831671;28;20064;-56
2023/05/20 01:55:51;;;;;;;6.05;2.70;;;;;;;13.05;66.83;100688.91;4831622;28;20108;-57
2023/05/20 01:58:21;;;;;;;7.05;2.28;;;;;;;13.36;69.16;100704.94;4832305;28;20054;-57
2023/05/20 02:00:53;;;;;;;3.35;2.08;;;;;;;13.48;66.54;100694.19;4830921;28;20080;-57
2023/05/20 02:03:24;;;;;;;2.63;2.10;;;;;;;13.58;66.45;100689.59;4825011;28;20166;-56
2023/05/20 02:05:55;;;;;;;3.75;1.98;;;;;;;13.93;67.35;100693.19;4832264;28;20083;-57
2023/05/20 02:08:28;;;;;;;3.08;2.53;;;;;;;13.87;65.61;100696.81;4831111;28;20050;-57
2023/05/20 02:11:01;;;;;;;6.88;2.47;;;;;;;13.78;65.94;100676.88;4831106;28;20717;-57
2023/05/20 02:13:32;;;;;;;9.85;2.55;;;;;;;13.89;65.30;100699.41;4829828;28;20046;-60
2023/05/20 02:16:07;;;;;;;5.32;2.60;;;;;;;14.09;65.88;100694.53;4820004;28;20050;-58
2023/05/20 02:18:41;;;;;;;4.65;2.10;;;;;;;14.38;64.91;100699.09;4829774;28;20051;-57
2023/05/20 02:21:13;;;;;;;7.60;2.85;;;;;;;14.33;65.09;100689.59;4826558;28;20060;-57
2023/05/20 02:23:54;;;;;;;8.30;2.45;;;;;;;14.44;63.64;100692.81;4837823;28;20066;-56
2023/05/20 02:26:33;;;;;;;4.10;2.60;;;;;;;14.27;62.71;100673.97;4832806;28;20054;-56
2023/05/20 02:29:03;;;;;;;7.83;2.40;;;;;;;14.18;62.88;100675.94;4833068;28;20317;-56
2023/05/20 02:31:34;;;;;;;7.63;3.33;;;;;;;14.40;65.19;100680.63;4855965;28;20691;-57
2023/05/20 02:34:06;;;;;;;7.10;2.83;;;;;;;14.69;61.78;100655.38;4857233;28;20860;-54
2023/05/20 02:36:36;;;;;;;4.15;2.70;;;;;;;14.75;61.56;100660.47;4857417;28;20050;-56
2023/05/20 02:39:09;;;;;;;5.83;2.93;;;;;;;14.59;62.39;100666.16;4856851;28;20056;-56
2023/05/20 02:41:45;;;;;;;7.87;3.40;;;;;;;14.70;61.92;100670.25;4856643;28;20351;-54
2023/05/20 02:44:21;;;;;;;7.40;2.80;;;;;;;14.93;62.53;100665.25;4847041;28;20281;-57
2023/05/20 02:46:52;;;;;;;6.03;2.57;;;;;;;15.12;60.91;100655.03;4852082;28;20108;-57
2023/05/20 02:49:23;;;;;;;8.47;2.87;;;;;;;15.09;59.70;100632.31;4838770;28;20288;-55
2023/05/20 02:51:54;;;;;;;7.80;3.27;;;;;;;15.31;60.21;100650.97;4845486;28;20290;-55
2023/05/20 02:54:34;;;;;;;6.50;2.80;;;;;;;15.62;61.39;100670.25;4840181;28;20289;-58
2023/05/20 02:57:05;;;;;;;6.50;2.50;;;;;;;16.11;60.87;100663.44;4821528;28;20282;-57
2023/05/20 02:59:36;;;;;;;5.50;2.80;;;;;;;16.20;60.01;100663.16;4823068;28;20804;-56
2023/05/20 03:02:07;;;;;;;5.17;3.00;;;;;;;16.10;58.92;100666.97;4814320;28;20347;-57
2023/05/20 03:04:42;;;;;;;5.33;2.43;;;;;;;15.81;58.55;100660.91;4838446;28;20285;-57
2023/05/20 03:07:13;;;;;;;4.93;2.17;;;;;;;15.80;59.35;100664.44;4839371;28;20288;-56
2023/05/20 03:09:45;;;;;;;3.27;2.20;;;;;;;15.73;60.76;100660.28;4832870;28;20282;-54
2023/05/20 03:12:17;;;;;;;3.07;2.10;;;;;;;15.53;58.80;100672.25;4837831;28;20279;-56
2023/05/20 03:14:53;;;;;;;5.63;2.33;;;;;;;15.51;60.06;100658.25;4834552;28;20376;-57
2023/05/20 03:17:24;;;;;;;5.80;2.33;;;;;;;15.25;59.66;100660.81;4826967;28;20287;-56
2023/05/20 03:19:55;;;;;;;4.13;2.30;;;;;;;15.13;61.08;100648.88;4836132;28;20352;-56
2023/05/20 03:22:26;;;;;;;5.87;2.73;;;;;;;14.91;61.36;100645.16;4835800;28;20285;-56
2023/05/20 03:25:03;;;;;;;9.60;2.40;;;;;;;14.66;61.47;100615.13;4837971;28;20304;-56
2023/05/20 03:27:35;;;;;;;7.77;2.50;;;;;;;14.96;64.07;100641.47;4829107;28;21706;-55
2023/05/20 03:30:07;;;;;;;8.40;2.60;;;;;;;14.86;62.21;100632.13;4836113;28;20285;-56
2023/05/20 03:32:40;;;;;;;6.97;2.23;;;;;;;14.70;62.53;100620.28;4847305;28;20277;-57
2023/05/20 03:35:12;;;;;;;4.17;2.27;;;;;;;14.34;63.51;100620.34;4826900;28;20751;-57
2023/05/20 03:37:43;;;;;;;9.10;2.93;;;;;;;14.14;63.90;100584.06;4836843;28;20301;-56
2023/05/20 03:40:16;;;;;;;5.33;3.17;;;;;;;14.50;63.00;100605.88;4830237;28;20447;-56
2023/05/20 03:42:50;;;;;;;4.80;2.60;;;;;;;14.49;62.49;100609.41;4836679;28;20285;-56
2023/05/20 03:45:22;;;;;;;10.97;3.27;;;;;;;14.22;62.94;100540.91;4834604;28;20299;-58
2023/05/20 03:47:53;;;;;;;4.23;2.57;;;;;;;14.86;62.48;100613.69;4838851;28;20367;-55
2023/05/20 03:50:24;;;;;;;3.50;2.23;;;;;;;15.00;60.81;100629.97;4859302;28;20290;-56
2023/05/20 03:52:55;;;;;;;7.10;2.40;;;;;;;14.73;62.22;100614.97;4850322;28;20305;-57
2023/05/20 03:55:28;;;;;;;3.60;2.60;;;;;;;14.32;63.13;100619.50;4837440;28;20768;-57
2023/05/20 03:57:59;;;;;;;10.00;2.50;;;;;;;14.39;62.78;100621.09;4836968;28;20337;-55
2023/05/20 04:00:32;;;;;;;5.47;2.40;;;;;;;13.73;61.98;100542.19;4836640;28;20336;-57
2023/05/20 04:03:03;;;;;;;6.13;2.53;;;;;;;14.26;62.94;100638.09;4834381;28;20294;-57
2023/05/20 04:05:34;;;;;;;7.57;2.42;;;;;;;14.18;62.76;100602.34;4842036;28;20291;-57
2023/05/20 04:08:05;;;;;;;7.57;2.05;;;;;;;14.48;63.57;100615.59;4838187;28;20050;-57
2023/05/20 04:10:38;;;;;;;3.47;2.40;;;;;;;14.60;62.58;100620.56;4837448;28;20145;-57
2023/05/20 04:13:09;;;;;;;6.67;2.77;;;;;;;14.35;62.42;100630.84;4836880;28;21126;-57
2023/05/20 04:15:40;;;;;;;8.30;2.40;;;;;;;14.29;63.28;100577.53;4845916;28;20768;-55
2023/05/20 04:18:13;;;;;;;7.13;1.80;;;;;;;14.53;62.89;100624.25;4855331;28;20359;-56
2023/05/20 04:20:44;;;;;;;7.77;1.97;;;;;;;14.36;61.33;100615.91;4847200;28;20282;-56
2023/05/20 04:23:15;;;;;;;11.48;2.63;;;;;;;14.41;62.89;100640.31;4846467;28;20301;-57
2023/05/20 04:25:49;;;;;;;2.57;1.80;;;;;;;14.15;62.25;100630.44;4837420;28;20054;-57
2023/05/20 04:28:22;;;;;;;8.27;2.00;;;;;;;13.89;62.73;100639.00;4836603;28;21015;-56
2023/05/20 04:31:01;;;;;;;11.90;2.00;;;;;;;13.50;63.52;100633.75;4834942;28;20135;-55
2023/05/20 04:33:32;;;;;;;6.18;2.20;;;;;;;13.47;64.69;100612.84;4835963;28;20057;-57
2023/05/20 04:36:04;;;;;;;5.75;1.77;;;;;;;13.61;64.17;100626.50;4835507;28;20071;-57
2023/05/20 04:38:35;;;;;;;6.75;2.03;;;;;;;13.61;63.78;100610.75;4837180;28;20058;-56
2023/05/20 04:41:08;;;;;;;2.33;1.80;;;;;;;13.36;63.56;100626.19;4837501;28;20376;-56
2023/05/20 04:43:38;;;;;;;6.55;2.00;;;;;;;13.15;64.03;100627.47;4845565;28;20066;-57
2023/05/20 04:46:09;;;;;;;5.18;2.60;;;;;;;12.65;64.61;100632.84;4835756;28;20050;-58
2023/05/20 04:48:40;;;;;;;8.95;2.30;;;;;;;12.48;66.20;100624.44;4834513;28;20407;-57
2023/05/20 04:51:11;;;;;;;4.20;1.88;;;;;;;12.41;66.70;100613.22;4820906;28;20051;-58
2023/05/20 04:53:42;;;;;;;9.15;2.22;;;;;;;12.38;66.14;100618.53;4820477;28;20461;-57
2023/05/20 04:56:16;;;;;;;13.02;2.58;;;;;;;12.21;66.11;100610.09;4811873;28;20435;-56
2023/05/20 04:58:49;;;;;;;2.85;1.48;;;;;;;12.26;66.21;100624.84;4821765;28;20046;-57
2023/05/20 05:01:20;;;;;;;3.25;2.13;;;;;;;12.18;66.96;100620.59;4822494;28;20067;-57
2023/05/20 05:03:50;;;;;;;9.63;2.20;;;;;;;12.15;66.89;100610.19;4835767;28;20061;-57
2023/05/20 05:06:21;;;;;;;12.68;2.10;;;;;;;12.25;67.74;100604.75;4836379;28;20064;-58
2023/05/20 05:08:51;;;;;;;2.88;2.00;;;;;;;12.36;66.96;100606.34;4836347;28;20058;-58
2023/05/20 05:11:24;;;;;;;5.50;2.05;;;;;;;11.92;66.17;100559.06;4835595;28;20108;-57
2023/05/20 05:14:29;;;;;;;8.57;2.95;;;;;;;11.93;66.92;100615.81;4825642;28;20137;-57
2023/05/20 05:17:02;;;;;;;9.63;4.70;;;;;;;11.72;67.51;100605.63;4827790;28;20185;-56
2023/05/20 05:19:34;;;;;;;8.82;2.38;;;;;;;11.67;67.46;100603.06;4818975;28;20052;-58
2023/05/20 05:22:06;;;;;;;2.75;1.90;;;;;;;11.85;66.85;100597.53;4832456;28;20395;-57
2023/05/20 05:24:37;;;;;;;5.40;1.67;;;;;;;11.90;67.40;100592.25;4831011;28;20070;-57
2023/05/20 05:27:09;;;;;;;13.60;8.10;;;;;;;12.09;67.76;100585.81;4831496;28;20058;-57
2023/05/20 05:29:40;;;;;;;6.57;2.17;;;;;;;12.11;66.24;100592.81;4831732;28;20073;-57
2023/05/20 05:32:11;;;;;;;8.02;4.78;;;;;;;11.85;66.40;100587.06;4830954;28;20784;-58
2023/05/20 05:34:41;;;;;;;49.13;29.98;;;;;;;11.67;67.71;100592.59;4830016;28;20500;-58
2023/05/20 05:37:12;;;;;;;21.33;13.35;;;;;;;11.59;68.25;100590.09;4831266;28;20046;-57
2023/05/20 05:39:50;;;;;;;4.53;2.08;;;;;;;11.40;67.31;100593.88;4829293;28;20140;-58
2023/05/20 05:42:23;;;;;;;87.30;53.88;;;;;;;11.20;67.84;100604.63;4834341;28;20104;-58
2023/05/20 05:44:53;;;;;;;43.72;28.50;;;;;;;11.13;68.73;100609.09;4827585;28;20056;-57
2023/05/20 05:47:28;;;;;;;8.40;2.30;;;;;;;11.28;68.21;100599.28;4834518;28;20066;-57
2023/05/20 05:49:59;;;;;;;10.35;3.08;;;;;;;11.21;68.14;100586.31;4832130;28;20058;-58
2023/05/20 05:52:33;;;;;;;8.20;2.55;;;;;;;11.06;67.86;100591.75;4830524;28;20065;-57
2023/05/20 05:55:04;;;;;;;8.93;2.53;;;;;;;10.97;68.88;100589.25;4823213;28;20071;-58
2023/05/20 05:57:37;;;;;;;5.43;3.38;;;;;;;10.78;69.55;100589.47;4831281;28;20045;-57
2023/05/20 06:00:08;;;;;;;4.53;1.67;;;;;;;10.93;69.59;100604.13;4947310;28;20485;-57
2023/05/20 06:02:42;;;;;;;33.22;18.15;;;;;;;10.96;69.03;100597.97;4975073;28;20587;-57
2023/05/20 06:05:13;;;;;;;41.08;28.20;;;;;;;10.86;69.68;100594.63;4972438;28;20229;-57
2023/05/20 06:07:43;;;;;;;9.93;4.20;;;;;;;10.78;68.93;100597.31;4975773;28;20158;-57
2023/05/20 06:10:14;;;;;;;34.25;20.60;;;;;;;10.83;69.78;100585.94;4883498;28;20057;-57
2023/05/20 06:12:46;;;;;;;28.50;16.67;;;;;;;10.76;70.18;100595.63;4830525;28;21586;-57
2023/05/20 06:15:20;;;;;;;13.55;6.97;;;;;;;10.80;70.38;100598.13;4830830;28;20046;-57
2023/05/20 06:17:51;;;;;;;3.65;2.10;;;;;;;10.78;70.38;100593.81;4831014;28;20054;-57
2023/05/20 06:20:23;;;;;;;8.65;1.98;;;;;;;11.10;70.13;100596.03;4831121;28;20058;-57
2023/05/20 06:23:00;;;;;;;6.15;1.85;;;;;;;11.34;68.43;100599.22;4821412;28;20059;-57
2023/05/20 06:25:38;;;;;;;10.13;2.30;;;;;;;11.39;67.93;100597.41;4820370;28;20527;-57
2023/05/20 06:28:14;;;;;;;3.08;2.17;;;;;;;11.25;68.39;100596.72;4834614;28;20054;-57
2023/05/20 06:30:45;;;;;;;7.35;2.15;;;;;;;11.14;68.75;100600.34;4819800;28;20096;-57
2023/05/20 06:33:16;;;;;;;2.80;1.50;;;;;;;10.98;68.49;100602.31;4830507;28;20496;-57
2023/05/20 06:36:29;;;;;;;3.30;2.00;;;;;;;10.68;69.05;100598.28;4830624;28;20113;-57
2023/05/20 06:39:33;;;;;;;3.55;2.10;;;;;;;10.38;69.33;100590.78;4819879;28;20069;-57
2023/05/20 06:42:11;;;;;;;3.78;2.10;;;;;;;10.18;71.23;100597.03;4820708;28;20142;-57
2023/05/20 06:44:43;;;;;;;15.00;10.32;;;;;;;10.12;72.29;100610.16;4831053;28;20050;-56
2023/05/20 06:47:18;;;;;;;11.52;2.60;;;;;;;10.09;71.67;100604.97;4819825;28;20055;-57
2023/05/20 06:49:55;;;;;;;5.97;2.15;;;;;;;9.91;72.04;100614.69;4830455;28;20767;-56
2023/05/20 06:52:26;;;;;;;3.60;2.22;;;;;;;9.97;71.87;100618.13;4831214;28;20094;-57
2023/05/20 06:54:57;;;;;;;5.30;1.98;;;;;;;9.79;71.76;100604.34;4831275;28;20141;-57
2023/05/20 06:57:27;;;;;;;5.70;2.10;;;;;;;9.71;73.11;100600.94;4830720;28;20081;-56
2023/05/20 07:00:02;;;;;;;5.20;2.05;;;;;;;9.79;73.13;100609.56;4829857;28;20097;-58
2023/05/20 07:02:35;;;;;;;4.70;1.85;;;;;;;9.71;72.85;100606.16;4828350;28;20062;-56
2023/05/20 07:05:06;;;;;;;4.22;1.70;;;;;;;9.71;73.04;100608.75;4831192;28;20057;-57
2023/05/20 07:07:39;;;;;;;5.57;2.45;;;;;;;9.78;72.42;100602.59;4829455;28;20054;-57
2023/05/20 07:10:10;;;;;;;5.22;2.13;;;;;;;9.87;72.34;100606.91;4830659;28;20065;-57
2023/05/20 07:12:41;;;;;;;3.67;2.40;;;;;;;9.81;72.20;100610.44;4829854;28;20417;-57
2023/05/20 07:15:14;;;;;;;4.32;2.13;;;;;;;9.81;72.02;100607.81;4830661;28;20058;-57
2023/05/20 07:17:45;;;;;;;10.60;2.45;;;;;;;9.86;72.39;100600.81;4822681;28;20042;-57
2023/05/20 07:20:15;;;;;;;10.82;2.33;;;;;;;9.62;72.89;100586.19;4833888;28;20092;-57
2023/05/20 07:22:47;;;;;;;5.22;2.83;;;;;;;9.48;73.67;100582.81;4835063;28;20064;-57
2023/05/20 07:25:21;;;;;;;3.25;1.75;;;;;;;9.49;73.49;100588.03;4833978;28;20054;-57
2023/05/20 07:27:54;;;;;;;7.43;1.80;;;;;;;9.47;73.67;100584.56;4826723;28;20591;-57
2023/05/20 07:30:29;;;;;;;9.65;3.25;;;;;;;9.63;73.59;100571.41;4833625;28;20547;-57
2023/05/20 07:33:06;;;;;;;7.50;2.42;;;;;;;9.71;73.65;100574.84;4831412;28;20095;-57
2023/05/20 07:35:39;;;;;;;21.48;6.53;;;;;;;9.63;73.13;100555.75;4833514;28;20050;-57
2023/05/20 07:38:10;;;;;;;3.38;2.08;;;;;;;9.66;72.95;100582.69;4832872;28;20141;-57
2023/05/20 07:40:43;;;;;;;7.53;3.20;;;;;;;9.65;73.15;100587.91;4832682;28;20059;-57
2023/05/20 07:43:14;;;;;;;9.98;2.55;;;;;;;9.67;73.08;100583.56;4838201;28;20052;-57
2023/05/20 07:45:54;;;;;;;6.53;2.47;;;;;;;9.56;73.19;100580.16;4842891;28;20054;-57
2023/05/20 07:48:27;;;;;;;8.55;3.63;;;;;;;9.55;74.03;100584.50;4813283;28;20488;-56
2023/05/20 07:50:58;;;;;;;6.32;2.38;;;;;;;9.55;73.69;100578.44;4833389;28;20128;-56
2023/05/20 07:53:32;;;;;;;6.95;2.38;;;;;;;9.46;73.23;100575.03;4834130;28;20065;-57
2023/05/20 07:56:03;;;;;;;2.85;1.92;;;;;;;9.33;74.33;100583.78;4833178;28;20636;-57
2023/05/20 07:58:33;;;;;;;15.05;4.93;;;;;;;9.24;75.08;100563.00;4829348;28;20529;-56
2023/05/20 08:01:06;;;;;;;5.53;2.00;;;;;;;9.24;74.58;100563.00;4834789;28;20055;-57
2023/05/20 08:03:41;;;;;;;7.68;2.30;;;;;;;9.26;74.56;100574.25;4833143;28;20473;-57
2023/05/20 08:06:12;;;;;;;7.40;2.53;;;;;;;9.22;74.88;100562.13;4831749;28;20057;-57
2023/05/20 08:08:43;;;;;;;6.75;2.28;;;;;;;9.18;75.32;100576.06;4831508;28;20130;-56
2023/05/20 08:11:16;;;;;;;4.43;2.60;;;;;;;9.14;75.34;100569.13;4833872;28;20862;-57
2023/05/20 08:13:50;;;;;;;3.38;2.42;;;;;;;9.04;75.62;100566.56;4832437;28;20801;-57
2023/05/20 08:16:23;;;;;;;6.15;2.33;;;;;;;9.00;75.62;100567.44;4833596;28;20536;-56
2023/05/20 08:18:55;;;;;;;5.03;2.67;;;;;;;8.96;76.36;100576.19;4829666;28;20075;-57
2023/05/20 08:21:29;;;;;;;15.93;4.05;;;;;;;9.03;76.79;100574.38;4833041;28;20061;-57
2023/05/20 08:24:00;;;;;;;10.32;3.40;;;;;;;9.04;76.22;100574.41;4832293;28;20046;-57
2023/05/20 08:26:31;;;;;;;5.25;2.70;;;;;;;9.02;76.26;100568.31;4832994;28;20061;-57
2023/05/20 08:29:01;;;;;;;4.00;2.08;;;;;;;8.93;75.80;100568.34;4832841;28;20436;-57
2023/05/20 08:31:35;;;;;;;3.70;2.28;;;;;;;8.68;76.65;100562.38;4833170;28;20053;-57
2023/05/20 08:34:05;;;;;;;6.25;3.05;;;;;;;8.61;77.35;100558.06;4822389;28;20065;-56
2023/05/20 08:36:39;;;;;;;8.65;2.88;;;;;;;8.77;77.29;100556.28;4832781;28;20108;-57
2023/05/20 08:39:10;;;;;;;10.20;3.28;;;;;;;8.97;76.82;100551.84;4832449;28;20054;-57
2023/05/20 08:41:41;;;;;;;46.28;25.35;;;;;;;9.14;75.99;100550.91;4831999;28;20050;-57
2023/05/20 08:44:16;;;;;;;14.07;4.82;;;;;;;9.17;76.48;100551.72;4832182;28;20065;-56
2023/05/20 08:46:49;;;;;;;4.35;2.25;;;;;;;8.94;75.87;100549.25;4823343;28;20076;-58
2023/05/20 08:49:22;;;;;;;5.18;2.17;;;;;;;8.99;76.62;100557.91;4832933;28;20477;-58
2023/05/20 08:51:55;;;;;;;4.82;2.22;;;;;;;8.94;76.75;100549.25;4831480;28;21254;-57
2023/05/20 08:54:32;;;;;;;3.67;1.90;;;;;;;8.66;76.83;100558.06;4832633;28;20109;-57
2023/05/20 08:57:03;;;;;;;4.13;2.00;;;;;;;8.46;78.20;100561.59;4832219;28;20138;-57
2023/05/20 08:59:35;;;;;;;10.70;2.50;;;;;;;8.34;78.58;100557.25;4838222;28;20967;-57
2023/05/20 09:02:07;;;;;;;10.20;3.35;;;;;;;8.27;79.10;100571.16;4832595;28;20069;-58
2023/05/20 09:04:38;;;;;;;12.05;3.05;;;;;;;8.09;79.44;100572.06;4832769;28;20077;-57
2023/05/20 09:07:26;;;;;;;9.60;2.35;;;;;;;8.00;79.84;100587.69;4832030;28;20054;-58
2023/05/20 09:10:03;;;;;;;4.55;2.10;;;;;;;7.94;80.54;100588.56;4821766;28;20060;-58
2023/05/20 09:12:33;;;;;;;4.35;2.47;;;;;;;7.81;80.82;100565.13;4827183;28;20055;-58
2023/05/20 09:15:09;;;;;;;7.00;2.65;;;;;;;7.73;80.83;100566.00;4832096;28;20050;-58
2023/05/20 09:17:41;;;;;;;6.50;2.63;;;;;;;7.66;81.72;100566.88;4832479;28;20054;-58
2023/05/20 09:20:13;;;;;;;5.68;2.22;;;;;;;7.48;81.89;100556.44;4832004;28;20046;-57
2023/05/20 09:22:43;;;;;;;7.38;2.55;;;;;;;7.48;82.52;100578.13;4828245;28;20997;-57
2023/05/20 09:25:14;;;;;;;6.00;2.17;;;;;;;7.44;82.74;100575.50;4835762;28;20064;-57
2023/05/20 09:27:51;;;;;;;3.67;2.38;;;;;;;7.32;82.78;100572.03;4832407;28;20469;-58
2023/05/20 09:30:24;;;;;;;4.22;2.28;;;;;;;7.40;83.53;100578.97;4830752;28;20481;-58
2023/05/20 09:33:00;;;;;;;5.18;2.60;;;;;;;7.27;83.34;100578.97;4821748;28;20054;-58
2023/05/20 09:35:31;;;;;;;4.47;2.30;;;;;;;7.09;83.74;100568.53;4831960;28;20086;-58
2023/05/20 09:38:04;;;;;;;5.53;2.85;;;;;;;6.76;84.09;100544.16;4832851;28;20053;-57
2023/05/20 09:40:36;;;;;;;9.23;2.70;;;;;;;6.90;84.75;100578.84;4819425;28;20141;-57
2023/05/20 09:43:11;;;;;;;7.32;3.00;;;;;;;6.74;85.34;100577.06;4831845;28;20050;-57
2023/05/20 09:45:43;;;;;;;11.43;2.78;;;;;;;6.54;85.66;100557.91;4831292;28;20137;-58
2023/05/20 09:48:18;;;;;;;11.35;2.97;;;;;;;6.51;86.14;100578.66;4827906;28;20075;-58
2023/05/20 09:50:49;;;;;;;6.22;3.75;;;;;;;6.45;87.11;100585.56;4830541;28;20061;-58
2023/05/20 09:53:22;;;;;;;8.60;2.90;;;;;;;6.33;87.39;100585.50;4831744;28;20129;-58
2023/05/20 09:55:55;;;;;;;7.57;3.53;;;;;;;6.26;87.55;100589.78;4829749;28;20068;-58
2023/05/20 09:58:29;;;;;;;6.82;3.22;;;;;;;6.24;88.03;100585.44;4830608;28;20050;-57
2023/05/20 10:01:00;;;;;;;50.92;5.90;;;;;;;6.23;88.36;100581.09;4831431;28;20863;-57
2023/05/20 10:03:34;;;;;;;20.73;3.55;;;;;;;6.13;88.33;100582.75;4831522;28;20086;-57
2023/05/20 10:06:38;;;;;;;12.35;3.10;;;;;;;5.99;88.63;100581.78;4821392;28;20069;-57
2023/05/20 10:09:33;;;;;;;8.60;3.20;;;;;;;5.70;89.68;100566.00;4819858;28;20145;-57
2023/05/20 10:12:15;;;;;;;11.05;3.10;;;;;;;5.80;89.92;100593.72;4813959;28;20059;-56
2023/05/20 10:14:59;;;;;;;7.53;2.97;;;;;;;5.69;90.11;100585.88;4820857;28;20050;-56
2023/05/20 10:17:42;;;;;;;11.43;2.63;;;;;;;5.71;90.33;100583.28;4820045;28;20054;-57
2023/05/20 10:20:24;;;;;;;7.22;3.33;;;;;;;5.65;90.49;100588.41;4817938;28;20071;-56
2023/05/20 10:23:27;;;;;;;7.03;3.00;;;;;;;5.52;91.22;100575.34;4821600;28;20050;-57
2023/05/20 10:26:10;;;;;;;5.50;2.72;;;;;;;5.52;91.32;100582.25;4820243;28;20058;-57
2023/05/20 10:28:54;;;;;;;6.63;2.78;;;;;;;5.51;91.04;100576.19;4819230;28;20261;-56
2023/05/20 10:31:34;;;;;;;6.40;2.47;;;;;;;5.36;91.25;100581.22;4831150;28;20062;-56
2023/05/20 10:34:04;;;;;;;8.07;3.17;;;;;;;5.25;92.07;100573.34;4824040;28;20127;-57
2023/05/20 10:36:37;;;;;;;6.38;2.80;;;;;;;5.21;92.82;100570.72;4829668;28;20153;-57
2023/05/20 10:39:17;;;;;;;4.75;2.83;;;;;;;5.24;93.03;100591.47;4830110;28;20096;-56
2023/05/20 10:41:53;;;;;;;5.45;2.70;;;;;;;5.19;93.31;100605.25;4821355;28;20050;-57
2023/05/20 10:44:24;;;;;;;5.95;2.75;;;;;;;5.15;93.31;100597.44;4823345;28;20063;-56
2023/05/20 10:47:04;;;;;;;10.50;3.25;;;;;;;5.15;93.44;100608.66;4830736;28;20095;-56
2023/05/20 10:49:54;;;;;;;3.95;2.78;;;;;;;5.06;93.25;100607.66;4813515;28;20059;-56
2023/05/20 10:52:27;;;;;;;6.90;3.40;;;;;;;5.14;93.57;100622.47;4833041;28;20058;-57
2023/05/20 10:54:58;;;;;;;7.05;3.78;;;;;;;5.18;93.07;100619.03;4834637;28;20097;-57
2023/05/20 10:57:30;;;;;;;7.53;3.45;;;;;;;5.09;93.08;100624.13;4833749;28;20050;-56
2023/05/20 11:00:09;;;;;;;8.43;3.35;;;;;;;4.96;93.41;100617.91;4833051;28;20764;-57
2023/05/20 11:02:43;;;;;;;9.90;3.78;;;;;;;5.01;93.68;100625.75;4823704;28;20050;-57
2023/05/20 11:05:14;;;;;;;23.23;5.03;;;;;;;4.69;93.44;100602.94;4826925;28;20094;-57
2023/05/20 11:07:51;;;;;;;21.17;5.03;;;;;;;4.87;94.49;100633.34;4834714;28;20380;-57
2023/05/20 11:10:23;;;;;;;14.05;6.60;;;;;;;4.83;94.69;100625.53;4833760;28;20089;-56
2023/05/20 11:12:53;;;;;;;12.10;3.92;;;;;;;4.85;94.49;100629.00;4829402;28;20055;-57
2023/05/20 11:15:25;;;;;;;6.30;3.42;;;;;;;4.70;94.65;100609.84;4835771;28;20113;-57
2023/05/20 11:17:58;;;;;;;7.53;3.67;;;;;;;4.72;94.91;100623.66;4832539;28;20062;-56
2023/05/20 11:20:29;;;;;;;7.03;3.53;;;;;;;4.60;95.20;100602.81;4833648;28;20062;-57
2023/05/20 11:23:03;;;;;;;7.40;3.30;;;;;;;4.48;95.04;100592.28;4833960;28;20061;-57
2023/05/20 11:25:35;;;;;;;4.40;3.05;;;;;;;4.42;95.98;100587.00;4830208;28;20055;-56
2023/05/20 11:28:08;;;;;;;5.35;3.65;;;;;;;4.49;96.49;100597.50;4833818;28;20058;-56
2023/05/20 11:30:39;;;;;;;8.10;3.33;;;;;;;4.49;96.11;100604.34;4833027;28;20061;-57
2023/05/20 11:33:14;;;;;;;5.72;3.35;;;;;;;4.31;95.88;100598.06;4834032;28;20048;-58
2023/05/20 11:36:10;;;;;;;7.07;3.75;;;;;;;4.30;95.78;100598.94;4823201;28;20058;-57
2023/05/20 11:39:07;;;;;;;5.13;3.05;;;;;;;4.38;95.87;100611.13;4822835;28;20058;-59
2023/05/20 11:45:17;;;;;;;7.72;4.25;;;;;;;4.41;96.46;100611.16;4822156;28;20084;-57
2023/05/20 11:48:01;;;;;;;25.52;4.20;;;;;;;4.44;96.71;100611.19;4831731;28;20734;-57
2023/05/20 11:50:38;;;;;;;28.92;4.72;;;;;;;4.41;96.57;100611.16;4821127;28;20054;-57
2023/05/20 11:53:15;;;;;;;47.13;4.55;;;;;;;4.43;96.76;100619.81;4821867;28;20133;-57
2023/05/20 11:55:52;;;;;;;42.20;5.40;;;;;;;4.13;96.71;100579.72;4821998;28;20053;-57
2023/05/20 11:58:27;;;;;;;79.00;7.30;;;;;;;4.33;96.98;100604.16;4829241;28;20064;-57
2023/05/20 12:00:58;;;;;;;49.92;6.78;;;;;;;4.32;97.35;100597.25;4831670;28;20052;-57